首页
METAR-TAF:

METAR-TAF

机场 :

萨尔瓦多奥斯卡·阿努尔福·罗梅罗-伊-加尔达梅斯主教国际机场

萨尔瓦多, 萨尔瓦多

纬度: 13-26N, 经度: 089-03W, 海拔: 25米

当前天气观测

该预报发布于37分钟前的19:50 UTC
风速5节,风向多变
温度 32°C
湿度 67%
气压 1012 hPa
能见度10公里或以上
少量云层高于3300英尺, 塔状积云.
散云层高于3700英尺

METAR: MSLP 171950Z VRB05KT 9999 FEW033TCU SCT037 32/25 Q1012 A2988 NOSIG TCU N-NE-E-NW

时间: 14:27 (20:27 UTC)

预报

该预报发布于5小时和2分钟前的15:25 UTC
预报有效从17日的 18点(UTC)到 18日的 18点(UTC)
风速10节,风向南转西南
能见度10公里或以上
少量云层高于2700英尺
少量云层高于4000英尺, 积雨云.
从 18日的 0000点(UTC)
风速5节,风向北转西北
能见度10公里或以上
散云层高于2300英尺
少量云层高于3700英尺, 积雨云.
散云层高于5000英尺
几率 40% :
短暂存在
从 18日的 02点(UTC)到 18日的 04点(UTC)
风速10节,风向东转东北
能見度: 5000
多云层高于2300英尺
散云层高于3300英尺, 积雨云.
雷暴, 雨
从 18日的 0400点(UTC)
风速4节,风向东北
能见度10公里或以上
少量云层高于2000英尺
多云层高于6000英尺

TAF: MSLP 171525Z 1718/1818 20010KT 9999 FEW027 FEW040CB TX34/1718Z TN22/1811Z FM180000 33005KT 9999 SCT023 FEW037CB SCT050 PROB40 TEMPO 1802/1804 07010KT 5000 TSRA BKN023 SCT033CB FM180400 04004KT 9999 FEW020 BKN060

超过4000个机场的气象观测和天气预报(METAR&TAF报告)。

可查询的气象台以黄色和红色小点在地图上表示。

将鼠标移到小点上方,可查看气象台名称。

然后点击查看天气观测和预报。

如需切换地图:点击带黑十字的绿色按钮放大地图;点击带横线的绿色按钮缩小地图;或者点击绿色箭头查看邻近地区的地图。


METAR-TAF: